sensor_id;sensor_type;location;lat;lon;timestamp;pressure;altitude;pressure_sealevel;temperature;humidity
5780;BME280;2916;49.798;10.022;2023-07-20T00:02:04;148627.41;;;17.67;96.04
5780;BME280;2916;49.798;10.022;2023-07-20T00:04:33;148611.22;;;17.61;94.78
5780;BME280;2916;49.798;10.022;2023-07-20T00:07:00;148629.94;;;17.69;94.99
5780;BME280;2916;49.798;10.022;2023-07-20T00:09:29;148627.41;;;17.67;94.30
5780;BME280;2916;49.798;10.022;2023-07-20T00:11:56;148627.41;;;17.67;94.18
5780;BME280;2916;49.798;10.022;2023-07-20T00:14:25;148642.38;;;17.74;95.33
5780;BME280;2916;49.798;10.022;2023-07-20T00:16:56;148644.91;;;17.75;95.41
5780;BME280;2916;49.798;10.022;2023-07-20T00:19:24;148634.91;;;17.71;96.33
5780;BME280;2916;49.798;10.022;2023-07-20T00:21:51;148597.47;;;17.55;98.12
5780;BME280;2916;49.798;10.022;2023-07-20T00:24:19;148587.50;;;17.51;98.38
5780;BME280;2916;49.798;10.022;2023-07-20T00:26:47;148612.47;;;17.61;97.81
5780;BME280;2916;49.798;10.022;2023-07-20T00:29:14;148562.59;;;17.41;97.73
5780;BME280;2916;49.798;10.022;2023-07-20T00:31:42;148603.75;;;17.58;97.71
5780;BME280;2916;49.798;10.022;2023-07-20T00:34:09;148575.06;;;17.46;98.79
5780;BME280;2916;49.798;10.022;2023-07-20T00:36:36;148592.53;;;17.53;95.92
5780;BME280;2916;49.798;10.022;2023-07-20T00:39:03;148611.22;;;17.61;94.17
5780;BME280;2916;49.798;10.022;2023-07-20T00:41:30;148603.75;;;17.58;96.68
5780;BME280;2916;49.798;10.022;2023-07-20T00:44:00;148601.25;;;17.57;96.97
5780;BME280;2916;49.798;10.022;2023-07-20T00:46:27;148595.00;;;17.54;96.22
5780;BME280;2916;49.798;10.022;2023-07-20T00:48:55;148482.81;;;17.08;96.63
5780;BME280;2916;49.798;10.022;2023-07-20T00:51:23;148577.53;;;17.47;98.46
5780;BME280;2916;49.798;10.022;2023-07-20T00:53:52;148576.31;;;17.47;95.54
5780;BME280;2916;49.798;10.022;2023-07-20T00:56:20;148578.78;;;17.48;96.87
5780;BME280;2916;49.798;10.022;2023-07-20T00:58:48;148562.59;;;17.41;98.72
5780;BME280;2916;49.798;10.022;2023-07-20T01:01:17;148552.59;;;17.37;98.86
5780;BME280;2916;49.798;10.022;2023-07-20T01:03:44;148543.91;;;17.33;98.45
5780;BME280;2916;49.798;10.022;2023-07-20T01:06:25;148507.75;;;17.18;96.68
5780;BME280;2916;49.798;10.022;2023-07-20T01:09:03;148527.69;;;17.27;95.31
5780;BME280;2916;49.798;10.022;2023-07-20T01:11:39;148521.44;;;17.24;96.07
5780;BME280;2916;49.798;10.022;2023-07-20T01:14:11;148515.25;;;17.22;96.69
5780;BME280;2916;49.798;10.022;2023-07-20T01:16:40;148505.28;;;17.17;95.68
5780;BME280;2916;49.798;10.022;2023-07-20T01:19:07;148497.78;;;17.14;95.74
5780;BME280;2916;49.798;10.022;2023-07-20T01:21:43;148482.81;;;17.08;95.68
5780;BME280;2916;49.798;10.022;2023-07-20T01:24:41;148472.81;;;17.04;96.29
5780;BME280;2916;49.798;10.022;2023-07-20T01:28:04;148487.81;;;17.10;96.66
5780;BME280;2916;49.798;10.022;2023-07-20T01:30:51;148479.06;;;17.07;94.51
5780;BME280;2916;49.798;10.022;2023-07-20T01:33:24;148423.00;;;16.84;95.55
5780;BME280;2916;49.798;10.022;2023-07-20T01:35:56;148472.81;;;17.04;95.14
5780;BME280;2916;49.798;10.022;2023-07-20T01:38:25;148464.09;;;17.01;96.87
5780;BME280;2916;49.798;10.022;2023-07-20T01:40:52;148442.94;;;16.92;95.43
5780;BME280;2916;49.798;10.022;2023-07-20T01:43:20;148441.69;;;16.91;98.25
5780;BME280;2916;49.798;10.022;2023-07-20T01:45:47;148409.31;;;16.78;98.40
5780;BME280;2916;49.798;10.022;2023-07-20T01:48:14;148398.06;;;16.74;98.68
5780;BME280;2916;49.798;10.022;2023-07-20T01:50:43;148385.56;;;16.68;98.76
5780;BME280;2916;49.798;10.022;2023-07-20T01:53:10;148370.63;;;16.62;98.02
5780;BME280;2916;49.798;10.022;2023-07-20T01:55:38;148373.09;;;16.63;99.23
5780;BME280;2916;49.798;10.022;2023-07-20T01:58:05;148393.03;;;16.72;97.89
5780;BME280;2916;49.798;10.022;2023-07-20T02:00:32;148408.00;;;16.78;98.36
5780;BME280;2916;49.798;10.022;2023-07-20T02:02:59;148405.53;;;16.77;97.17
5780;BME280;2916;49.798;10.022;2023-07-20T02:05:26;148375.59;;;16.64;97.06
5780;BME280;2916;49.798;10.022;2023-07-20T02:07:55;148361.91;;;16.59;98.82
5780;BME280;2916;49.798;10.022;2023-07-20T02:10:22;148355.66;;;16.56;98.65
5780;BME280;2916;49.798;10.022;2023-07-20T02:12:49;148345.69;;;16.52;98.78
5780;BME280;2916;49.798;10.022;2023-07-20T02:15:17;148338.22;;;16.49;99.05
5780;BME280;2916;49.798;10.022;2023-07-20T02:17:45;148329.47;;;16.45;98.48
5780;BME280;2916;49.798;10.022;2023-07-20T02:20:12;148305.84;;;16.36;98.33
5780;BME280;2916;49.798;10.022;2023-07-20T02:22:40;148322.00;;;16.42;97.16
5780;BME280;2916;49.798;10.022;2023-07-20T02:25:09;148288.38;;;16.29;97.56
5780;BME280;2916;49.798;10.022;2023-07-20T02:27:37;148295.88;;;16.32;99.07
5780;BME280;2916;49.798;10.022;2023-07-20T02:30:06;148285.91;;;16.28;98.92
5780;BME280;2916;49.798;10.022;2023-07-20T02:32:35;148265.97;;;16.19;97.90
5780;BME280;2916;49.798;10.022;2023-07-20T02:35:02;148221.13;;;16.01;97.87
5780;BME280;2916;49.798;10.022;2023-07-20T02:37:30;148260.97;;;16.17;97.22
5780;BME280;2916;49.798;10.022;2023-07-20T02:39:58;148265.97;;;16.19;96.20
5780;BME280;2916;49.798;10.022;2023-07-20T02:42:28;148269.69;;;16.21;95.39
5780;BME280;2916;49.798;10.022;2023-07-20T02:44:55;148263.44;;;16.18;95.28
5780;BME280;2916;49.798;10.022;2023-07-20T02:47:22;148263.44;;;16.18;94.42
5780;BME280;2916;49.798;10.022;2023-07-20T02:49:49;148246.06;;;16.11;94.14
5780;BME280;2916;49.798;10.022;2023-07-20T02:52:16;148242.28;;;16.10;95.14
5780;BME280;2916;49.798;10.022;2023-07-20T02:54:43;148178.78;;;15.84;94.59
5780;BME280;2916;49.798;10.022;2023-07-20T02:57:11;148191.22;;;15.89;94.25
5780;BME280;2916;49.798;10.022;2023-07-20T02:59:40;148214.88;;;15.99;95.11
5780;BME280;2916;49.798;10.022;2023-07-20T03:02:07;148214.88;;;15.99;95.49
5780;BME280;2916;49.798;10.022;2023-07-20T03:04:35;148188.75;;;15.88;95.66
5780;BME280;2916;49.798;10.022;2023-07-20T03:07:04;148221.13;;;16.01;95.68
5780;BME280;2916;49.798;10.022;2023-07-20T03:09:31;148204.91;;;15.94;95.98
5780;BME280;2916;49.798;10.022;2023-07-20T03:11:58;148198.72;;;15.92;94.90
5780;BME280;2916;49.798;10.022;2023-07-20T03:14:26;148229.84;;;16.05;95.94
5780;BME280;2916;49.798;10.022;2023-07-20T03:16:55;148211.16;;;15.97;95.83
5780;BME280;2916;49.798;10.022;2023-07-20T03:19:22;148206.16;;;15.95;96.47
5780;BME280;2916;49.798;10.022;2023-07-20T03:21:49;148211.16;;;15.97;96.57
5780;BME280;2916;49.798;10.022;2023-07-20T03:24:16;148201.19;;;15.93;97.07
5780;BME280;2916;49.798;10.022;2023-07-20T03:26:43;148188.75;;;15.88;96.99
5780;BME280;2916;49.798;10.022;2023-07-20T03:29:11;148156.34;;;15.75;96.33
5780;BME280;2916;49.798;10.022;2023-07-20T03:31:38;148170.06;;;15.80;99.15
5780;BME280;2916;49.798;10.022;2023-07-20T03:34:06;148151.38;;;15.73;99.94
5780;BME280;2916;49.798;10.022;2023-07-20T03:36:34;148156.34;;;15.75;99.61
5780;BME280;2916;49.798;10.022;2023-07-20T03:39:02;148143.91;;;15.69;99.42
5780;BME280;2916;49.798;10.022;2023-07-20T03:41:29;148161.34;;;15.77;100.00
5780;BME280;2916;49.798;10.022;2023-07-20T03:43:56;148142.66;;;15.69;100.00
5780;BME280;2916;49.798;10.022;2023-07-20T03:46:23;148131.41;;;15.64;100.00
5780;BME280;2916;49.798;10.022;2023-07-20T03:48:50;148121.47;;;15.60;100.00
5780;BME280;2916;49.798;10.022;2023-07-20T03:51:19;148104.03;;;15.53;100.00
5780;BME280;2916;49.798;10.022;2023-07-20T03:53:46;148116.47;;;15.58;100.00
5780;BME280;2916;49.798;10.022;2023-07-20T03:56:13;148117.69;;;15.59;100.00
5780;BME280;2916;49.798;10.022;2023-07-20T03:58:40;148106.50;;;15.54;100.00
5780;BME280;2916;49.798;10.022;2023-07-20T04:01:08;148100.25;;;15.52;100.00
5780;BME280;2916;49.798;10.022;2023-07-20T04:03:35;148101.50;;;15.52;100.00
5780;BME280;2916;49.798;10.022;2023-07-20T04:06:02;148101.50;;;15.52;100.00
5780;BME280;2916;49.798;10.022;2023-07-20T04:08:31;148089.06;;;15.47;100.00
5780;BME280;2916;49.798;10.022;2023-07-20T04:11:01;148091.53;;;15.48;100.00
5780;BME280;2916;49.798;10.022;2023-07-20T04:13:28;148086.59;;;15.46;100.00
5780;BME280;2916;49.798;10.022;2023-07-20T04:15:59;148121.47;;;15.60;100.00
5780;BME280;2916;49.798;10.022;2023-07-20T04:18:26;148155.09;;;15.74;100.00
5780;BME280;2916;49.798;10.022;2023-07-20T04:20:54;148130.13;;;15.64;100.00
5780;BME280;2916;49.798;10.022;2023-07-20T04:23:21;148183.75;;;15.86;98.76
5780;BME280;2916;49.798;10.022;2023-07-20T04:25:49;148198.72;;;15.92;97.89
5780;BME280;2916;49.798;10.022;2023-07-20T04:28:16;148208.69;;;15.96;97.30
5780;BME280;2916;49.798;10.022;2023-07-20T04:30:43;148275.94;;;16.24;96.88
5780;BME280;2916;49.798;10.022;2023-07-20T04:33:10;148297.09;;;16.32;96.08
5780;BME280;2916;49.798;10.022;2023-07-20T04:35:50;148332.00;;;16.47;94.82
5780;BME280;2916;49.798;10.022;2023-07-20T04:38:18;148298.34;;;16.33;93.55
5780;BME280;2916;49.798;10.022;2023-07-20T04:40:46;148401.81;;;16.75;93.17
5780;BME280;2916;49.798;10.022;2023-07-20T04:43:18;148414.25;;;16.80;92.88
5780;BME280;2916;49.798;10.022;2023-07-20T04:45:45;148400.56;;;16.75;92.32
5780;BME280;2916;49.798;10.022;2023-07-20T04:48:14;148381.84;;;16.67;91.95
5780;BME280;2916;49.798;10.022;2023-07-20T04:50:43;148381.84;;;16.67;90.96
5780;BME280;2916;49.798;10.022;2023-07-20T04:53:12;148432.97;;;16.88;90.79
5780;BME280;2916;49.798;10.022;2023-07-20T04:55:40;148465.34;;;17.01;89.24
5780;BME280;2916;49.798;10.022;2023-07-20T04:58:07;148499.03;;;17.15;89.18
5780;BME280;2916;49.798;10.022;2023-07-20T05:00:38;148522.69;;;17.25;87.78
5780;BME280;2916;49.798;10.022;2023-07-20T05:03:05;148520.19;;;17.24;88.55
5780;BME280;2916;49.798;10.022;2023-07-20T05:05:32;148562.59;;;17.41;87.72
5780;BME280;2916;49.798;10.022;2023-07-20T05:08:00;148654.88;;;17.79;86.87
5780;BME280;2916;49.798;10.022;2023-07-20T05:10:27;148676.06;;;17.87;84.80
5780;BME280;2916;49.798;10.022;2023-07-20T05:12:54;148682.31;;;17.90;85.11
5780;BME280;2916;49.798;10.022;2023-07-20T05:15:21;148846.97;;;18.57;82.61
5780;BME280;2916;49.798;10.022;2023-07-20T05:17:49;149029.19;;;19.32;80.77
5780;BME280;2916;49.798;10.022;2023-07-20T05:20:17;149011.72;;;19.25;77.15
5780;BME280;2916;49.798;10.022;2023-07-20T05:22:44;149307.66;;;20.46;75.63
5780;BME280;2916;49.798;10.022;2023-07-20T05:25:12;149471.38;;;21.13;72.17
5780;BME280;2916;49.798;10.022;2023-07-20T05:27:40;149316.47;;;20.49;72.43
5780;BME280;2916;49.798;10.022;2023-07-20T05:30:08;149533.91;;;21.38;69.52
5780;BME280;2916;49.798;10.022;2023-07-20T05:32:35;149751.44;;;22.27;68.44
5780;BME280;2916;49.798;10.022;2023-07-20T05:35:05;149777.69;;;22.38;67.41
5780;BME280;2916;49.798;10.022;2023-07-20T05:37:32;149810.19;;;22.51;68.30
5780;BME280;2916;49.798;10.022;2023-07-20T05:39:59;149805.22;;;22.49;66.69
5780;BME280;2916;49.798;10.022;2023-07-20T05:42:26;150016.63;;;23.35;64.54
5780;BME280;2916;49.798;10.022;2023-07-20T05:44:54;149936.53;;;23.02;63.86
5780;BME280;2916;49.798;10.022;2023-07-20T05:47:21;149811.44;;;22.51;62.59
5780;BME280;2916;49.798;10.022;2023-07-20T05:49:48;149979.09;;;23.20;60.38
5780;BME280;2916;49.798;10.022;2023-07-20T05:52:17;150031.63;;;23.41;61.30
5780;BME280;2916;49.798;10.022;2023-07-20T05:54:44;149861.50;;;22.72;63.58
5780;BME280;2916;49.798;10.022;2023-07-20T05:57:11;150004.09;;;23.30;63.32
5780;BME280;2916;49.798;10.022;2023-07-20T05:59:39;150036.66;;;23.43;62.56
5780;BME280;2916;49.798;10.022;2023-07-20T06:02:09;149931.56;;;23.00;62.99
5780;BME280;2916;49.798;10.022;2023-07-20T06:04:36;149996.63;;;23.27;62.47
5780;BME280;2916;49.798;10.022;2023-07-20T06:07:04;150051.66;;;23.49;61.54
5780;BME280;2916;49.798;10.022;2023-07-20T06:09:34;150374.69;;;24.81;59.21
5780;BME280;2916;49.798;10.022;2023-07-20T06:12:02;150183.09;;;24.03;61.46
5780;BME280;2916;49.798;10.022;2023-07-20T06:14:29;150359.63;;;24.75;61.39
5780;BME280;2916;49.798;10.022;2023-07-20T06:16:56;150481.16;;;25.25;56.72
5780;BME280;2916;49.798;10.022;2023-07-20T06:19:23;150402.25;;;24.92;59.38
5780;BME280;2916;49.798;10.022;2023-07-20T06:21:51;150615.25;;;25.79;55.02
5780;BME280;2916;49.798;10.022;2023-07-20T06:24:18;150557.59;;;25.56;53.47
5780;BME280;2916;49.798;10.022;2023-07-20T06:26:46;150472.41;;;25.21;55.44
5780;BME280;2916;49.798;10.022;2023-07-20T06:29:14;150586.41;;;25.67;53.49
5780;BME280;2916;49.798;10.022;2023-07-20T06:31:41;150632.81;;;25.86;53.50
5780;BME280;2916;49.798;10.022;2023-07-20T06:34:08;150580.13;;;25.65;54.45
5780;BME280;2916;49.798;10.022;2023-07-20T06:36:35;150887.22;;;26.90;52.26
5780;BME280;2916;49.798;10.022;2023-07-20T06:39:02;150908.53;;;26.99;50.77
5780;BME280;2916;49.798;10.022;2023-07-20T06:41:29;150893.50;;;26.92;51.50
5780;BME280;2916;49.798;10.022;2023-07-20T06:43:58;150670.38;;;26.02;51.56
5780;BME280;2916;49.798;10.022;2023-07-20T06:46:26;150357.16;;;24.74;55.62
5780;BME280;2916;49.798;10.022;2023-07-20T06:48:53;150402.25;;;24.92;55.08
5780;BME280;2916;49.798;10.022;2023-07-20T06:51:21;150580.13;;;25.65;55.82
5780;BME280;2916;49.798;10.022;2023-07-20T06:53:48;150743.03;;;26.31;53.27
5780;BME280;2916;49.798;10.022;2023-07-20T06:56:15;150644.06;;;25.91;52.43
5780;BME280;2916;49.798;10.022;2023-07-20T06:58:42;150502.47;;;25.33;54.94
5780;BME280;2916;49.798;10.022;2023-07-20T07:01:10;150319.59;;;24.59;54.65
5780;BME280;2916;49.798;10.022;2023-07-20T07:03:38;150228.19;;;24.21;55.93
5780;BME280;2916;49.798;10.022;2023-07-20T07:06:05;150472.41;;;25.21;55.83
5780;BME280;2916;49.798;10.022;2023-07-20T07:08:32;150199.38;;;24.10;55.71
5780;BME280;2916;49.798;10.022;2023-07-20T07:10:59;150600.16;;;25.73;56.33
5780;BME280;2916;49.798;10.022;2023-07-20T07:13:26;150583.91;;;25.66;52.69
5780;BME280;2916;49.798;10.022;2023-07-20T07:15:53;150953.72;;;27.17;50.13
5780;BME280;2916;49.798;10.022;2023-07-20T07:18:23;150810.75;;;26.59;49.22
5780;BME280;2916;49.798;10.022;2023-07-20T07:20:51;150837.09;;;26.70;50.12
5780;BME280;2916;49.798;10.022;2023-07-20T07:23:19;151018.94;;;27.44;48.80
5780;BME280;2916;49.798;10.022;2023-07-20T07:25:46;151126.81;;;27.87;48.24
5780;BME280;2916;49.798;10.022;2023-07-20T07:28:13;150863.44;;;26.80;48.99
5780;BME280;2916;49.798;10.022;2023-07-20T07:30:41;151182.00;;;28.10;46.79
5780;BME280;2916;49.798;10.022;2023-07-20T07:33:08;151129.31;;;27.88;47.10
5780;BME280;2916;49.798;10.022;2023-07-20T07:35:37;151100.47;;;27.77;47.88
5780;BME280;2916;49.798;10.022;2023-07-20T07:38:04;151164.44;;;28.03;49.26
5780;BME280;2916;49.798;10.022;2023-07-20T07:40:32;150972.53;;;27.25;47.12
5780;BME280;2916;49.798;10.022;2023-07-20T07:42:59;150993.84;;;27.33;48.24
5780;BME280;2916;49.798;10.022;2023-07-20T07:45:26;151016.38;;;27.42;47.06
5780;BME280;2916;49.798;10.022;2023-07-20T07:47:54;150906.03;;;26.98;48.50
5780;BME280;2916;49.798;10.022;2023-07-20T07:50:21;150949.94;;;27.15;48.27
5780;BME280;2916;49.798;10.022;2023-07-20T07:52:49;150913.56;;;27.01;47.56
5780;BME280;2916;49.798;10.022;2023-07-20T07:55:16;150746.78;;;26.33;48.62
5780;BME280;2916;49.798;10.022;2023-07-20T07:57:43;150720.50;;;26.22;49.24
5780;BME280;2916;49.798;10.022;2023-07-20T08:00:15;150682.91;;;26.07;50.37
5780;BME280;2916;49.798;10.022;2023-07-20T08:02:44;150537.53;;;25.48;50.72
5780;BME280;2916;49.798;10.022;2023-07-20T08:05:12;150743.03;;;26.31;49.99
5780;BME280;2916;49.798;10.022;2023-07-20T08:07:39;150884.72;;;26.89;49.14
5780;BME280;2916;49.798;10.022;2023-07-20T08:10:09;150644.06;;;25.91;49.86
5780;BME280;2916;49.798;10.022;2023-07-20T08:12:36;151028.97;;;27.48;48.93
5780;BME280;2916;49.798;10.022;2023-07-20T08:15:05;151105.50;;;27.79;46.41
5780;BME280;2916;49.798;10.022;2023-07-20T08:17:32;151230.94;;;28.30;45.73
5780;BME280;2916;49.798;10.022;2023-07-20T08:19:59;151190.75;;;28.13;45.18
5780;BME280;2916;49.798;10.022;2023-07-20T08:22:26;151209.56;;;28.21;45.76
5780;BME280;2916;49.798;10.022;2023-07-20T08:24:54;151182.00;;;28.10;45.02
5780;BME280;2916;49.798;10.022;2023-07-20T08:27:23;151203.31;;;28.19;44.85
5780;BME280;2916;49.798;10.022;2023-07-20T08:29:50;151377.75;;;28.90;45.37
5780;BME280;2916;49.798;10.022;2023-07-20T08:32:17;151262.31;;;28.43;44.98
5780;BME280;2916;49.798;10.022;2023-07-20T08:34:44;151303.72;;;28.59;44.34
5780;BME280;2916;49.798;10.022;2023-07-20T08:37:11;150896.00;;;26.93;47.21
5780;BME280;2916;49.798;10.022;2023-07-20T08:39:38;151090.38;;;27.73;45.37
5780;BME280;2916;49.798;10.022;2023-07-20T08:42:06;151296.19;;;28.56;45.03
5780;BME280;2916;49.798;10.022;2023-07-20T08:44:36;151061.53;;;27.61;44.43
5780;BME280;2916;49.798;10.022;2023-07-20T08:47:06;150857.16;;;26.78;46.56
5780;BME280;2916;49.798;10.022;2023-07-20T08:49:34;150823.28;;;26.64;46.71
5780;BME280;2916;49.798;10.022;2023-07-20T08:52:03;150674.13;;;26.03;46.94
5780;BME280;2916;49.798;10.022;2023-07-20T08:54:31;150791.97;;;26.51;47.20
5780;BME280;2916;49.798;10.022;2023-07-20T08:57:03;150843.34;;;26.72;46.45
5780;BME280;2916;49.798;10.022;2023-07-20T08:59:30;151096.72;;;27.75;46.49
5780;BME280;2916;49.798;10.022;2023-07-20T09:02:00;151249.81;;;28.37;44.36
5780;BME280;2916;49.798;10.022;2023-07-20T09:04:29;151171.94;;;28.06;44.37
5780;BME280;2916;49.798;10.022;2023-07-20T09:06:57;151204.56;;;28.19;43.74
5780;BME280;2916;49.798;10.022;2023-07-20T09:09:24;151106.75;;;27.79;43.10
5780;BME280;2916;49.798;10.022;2023-07-20T09:11:51;151174.47;;;28.07;43.46
5780;BME280;2916;49.798;10.022;2023-07-20T09:14:18;151118.03;;;27.84;43.93
5780;BME280;2916;49.798;10.022;2023-07-20T09:16:49;150819.53;;;26.62;44.59
5780;BME280;2916;49.798;10.022;2023-07-20T09:19:19;150855.91;;;26.77;44.65
5780;BME280;2916;49.798;10.022;2023-07-20T09:21:47;151128.06;;;27.88;45.27
5780;BME280;2916;49.798;10.022;2023-07-20T09:24:17;151320.03;;;28.66;42.03
5780;BME280;2916;49.798;10.022;2023-07-20T09:26:46;151214.59;;;28.23;44.33
5780;BME280;2916;49.798;10.022;2023-07-20T09:29:18;151084.09;;;27.70;42.64
5780;BME280;2916;49.798;10.022;2023-07-20T09:31:59;151240.97;;;28.34;43.38
5780;BME280;2916;49.798;10.022;2023-07-20T09:34:29;151084.09;;;27.70;42.55
5780;BME280;2916;49.798;10.022;2023-07-20T09:36:58;151463.16;;;29.24;39.82
5780;BME280;2916;49.798;10.022;2023-07-20T09:39:25;151276.09;;;28.48;40.08
5780;BME280;2916;49.798;10.022;2023-07-20T09:41:52;151033.94;;;27.50;42.23
5780;BME280;2916;49.798;10.022;2023-07-20T09:44:20;150968.75;;;27.23;44.16
5780;BME280;2916;49.798;10.022;2023-07-20T09:46:49;151224.66;;;28.27;42.04
5780;BME280;2916;49.798;10.022;2023-07-20T09:49:17;151420.44;;;29.07;40.28
5780;BME280;2916;49.798;10.022;2023-07-20T09:51:47;151445.56;;;29.17;39.66
5780;BME280;2916;49.798;10.022;2023-07-20T09:54:14;151415.47;;;29.05;38.47
5780;BME280;2916;49.798;10.022;2023-07-20T09:56:43;151400.38;;;28.99;39.47
5780;BME280;2916;49.798;10.022;2023-07-20T09:59:11;151311.25;;;28.62;39.35
5780;BME280;2916;49.798;10.022;2023-07-20T10:01:41;151564.84;;;29.66;38.37
5780;BME280;2916;49.798;10.022;2023-07-20T10:04:11;151409.16;;;29.02;38.84
5780;BME280;2916;49.798;10.022;2023-07-20T10:06:43;151458.09;;;29.22;38.46
5780;BME280;2916;49.798;10.022;2023-07-20T10:09:16;151561.09;;;29.64;36.79
5780;BME280;2916;49.798;10.022;2023-07-20T10:11:51;151563.59;;;29.65;38.08
5780;BME280;2916;49.798;10.022;2023-07-20T10:14:21;151586.16;;;29.74;38.48
5780;BME280;2916;49.798;10.022;2023-07-20T10:16:54;151594.97;;;29.78;37.00
5780;BME280;2916;49.798;10.022;2023-07-20T10:19:42;151749.44;;;30.41;36.09
5780;BME280;2916;49.798;10.022;2023-07-20T10:22:14;151606.25;;;29.82;36.57
5780;BME280;2916;49.798;10.022;2023-07-20T10:24:46;151463.16;;;29.24;37.81
5780;BME280;2916;49.798;10.022;2023-07-20T10:27:14;151353.88;;;28.80;38.00
5780;BME280;2916;49.798;10.022;2023-07-20T10:29:42;151490.72;;;29.35;38.87
5780;BME280;2916;49.798;10.022;2023-07-20T10:32:10;151330.06;;;28.70;39.94
5780;BME280;2916;49.798;10.022;2023-07-20T10:34:38;151440.53;;;29.15;38.86
5780;BME280;2916;49.798;10.022;2023-07-20T10:37:05;151239.66;;;28.33;38.40
5780;BME280;2916;49.798;10.022;2023-07-20T10:39:33;151224.66;;;28.27;39.29
5780;BME280;2916;49.798;10.022;2023-07-20T10:42:06;151135.59;;;27.91;39.58
5780;BME280;2916;49.798;10.022;2023-07-20T10:44:34;151136.84;;;27.92;39.78
5780;BME280;2916;49.798;10.022;2023-07-20T10:47:09;151284.91;;;28.52;38.52
5780;BME280;2916;49.798;10.022;2023-07-20T10:49:58;151313.75;;;28.63;38.50
5780;BME280;2916;49.798;10.022;2023-07-20T10:52:26;151111.75;;;27.81;38.07
5780;BME280;2916;49.798;10.022;2023-07-20T10:54:53;151120.53;;;27.85;38.93
5780;BME280;2916;49.798;10.022;2023-07-20T10:57:40;151104.22;;;27.78;39.30
5780;BME280;2916;49.798;10.022;2023-07-20T11:00:10;150993.84;;;27.33;39.74
5780;BME280;2916;49.798;10.022;2023-07-20T11:02:45;151131.81;;;27.89;39.20
5780;BME280;2916;49.798;10.022;2023-07-20T11:05:36;151264.81;;;28.44;38.12
5780;BME280;2916;49.798;10.022;2023-07-20T11:08:11;151337.63;;;28.73;38.10
5780;BME280;2916;49.798;10.022;2023-07-20T11:10:39;151385.28;;;28.93;37.33
5780;BME280;2916;49.798;10.022;2023-07-20T11:13:22;151444.31;;;29.17;37.86
5780;BME280;2916;49.798;10.022;2023-07-20T11:16:04;151488.22;;;29.34;37.57
5780;BME280;2916;49.798;10.022;2023-07-20T11:18:34;151518.34;;;29.47;37.50
5780;BME280;2916;49.798;10.022;2023-07-20T11:21:09;151520.88;;;29.48;36.80
5780;BME280;2916;49.798;10.022;2023-07-20T11:23:38;151197.03;;;28.16;37.06
5780;BME280;2916;49.798;10.022;2023-07-20T11:26:06;151124.31;;;27.86;39.58
5780;BME280;2916;49.798;10.022;2023-07-20T11:28:35;151361.44;;;28.83;38.38
5780;BME280;2916;49.798;10.022;2023-07-20T11:31:03;151302.47;;;28.59;38.64
5780;BME280;2916;49.798;10.022;2023-07-20T11:33:30;151380.25;;;28.91;38.17
5780;BME280;2916;49.798;10.022;2023-07-20T11:35:57;151390.28;;;28.95;37.75
5780;BME280;2916;49.798;10.022;2023-07-20T11:38:24;151287.38;;;28.53;39.33
5780;BME280;2916;49.798;10.022;2023-07-20T11:40:52;151158.16;;;28.00;38.88
5780;BME280;2916;49.798;10.022;2023-07-20T11:43:19;151304.97;;;28.60;37.07
5780;BME280;2916;49.798;10.022;2023-07-20T11:45:50;151451.81;;;29.20;37.01
5780;BME280;2916;49.798;10.022;2023-07-20T11:48:17;151540.97;;;29.56;35.05
5780;BME280;2916;49.798;10.022;2023-07-20T11:50:45;151449.31;;;29.19;34.24
5780;BME280;2916;49.798;10.022;2023-07-20T11:53:14;151352.66;;;28.79;34.83
5780;BME280;2916;49.798;10.022;2023-07-20T11:55:41;151128.06;;;27.88;36.29
5780;BME280;2916;49.798;10.022;2023-07-20T11:58:09;151232.19;;;28.30;36.68
5780;BME280;2916;49.798;10.022;2023-07-20T12:00:39;151450.56;;;29.19;36.25
5780;BME280;2916;49.798;10.022;2023-07-20T12:03:09;151337.63;;;28.73;37.51
5780;BME280;2916;49.798;10.022;2023-07-20T12:05:38;151261.06;;;28.42;37.48
5780;BME280;2916;49.798;10.022;2023-07-20T12:08:06;151220.91;;;28.26;38.00
5780;BME280;2916;49.798;10.022;2023-07-20T12:10:33;151301.22;;;28.58;36.46
5780;BME280;2916;49.798;10.022;2023-07-20T12:13:02;151302.47;;;28.59;37.63
5780;BME280;2916;49.798;10.022;2023-07-20T12:15:30;151220.91;;;28.26;36.45
5780;BME280;2916;49.798;10.022;2023-07-20T12:17:59;151175.72;;;28.07;37.25
5780;BME280;2916;49.798;10.022;2023-07-20T12:20:31;151039.00;;;27.52;38.60
5780;BME280;2916;49.798;10.022;2023-07-20T12:23:02;151036.44;;;27.51;38.91
5780;BME280;2916;49.798;10.022;2023-07-20T12:25:37;151101.72;;;27.77;38.71
5780;BME280;2916;49.798;10.022;2023-07-20T12:28:07;151165.69;;;28.03;38.12
5780;BME280;2916;49.798;10.022;2023-07-20T12:30:36;151087.88;;;27.72;38.16
5780;BME280;2916;49.798;10.022;2023-07-20T12:33:04;151134.34;;;27.91;38.20
5780;BME280;2916;49.798;10.022;2023-07-20T12:35:33;151121.78;;;27.85;39.13
5780;BME280;2916;49.798;10.022;2023-07-20T12:38:01;151149.38;;;27.97;39.01
5780;BME280;2916;49.798;10.022;2023-07-20T12:40:28;151279.91;;;28.50;38.77
5780;BME280;2916;49.798;10.022;2023-07-20T12:42:57;151244.72;;;28.35;37.28
5780;BME280;2916;49.798;10.022;2023-07-20T12:45:24;151099.22;;;27.76;37.27
5780;BME280;2916;49.798;10.022;2023-07-20T12:47:51;151086.63;;;27.71;37.68
5780;BME280;2916;49.798;10.022;2023-07-20T12:50:18;151066.59;;;27.63;38.92
5780;BME280;2916;49.798;10.022;2023-07-20T12:52:47;151115.53;;;27.83;38.23
5780;BME280;2916;49.798;10.022;2023-07-20T12:55:14;151169.44;;;28.05;37.51
5780;BME280;2916;49.798;10.022;2023-07-20T12:57:41;151116.78;;;27.83;37.06
5780;BME280;2916;49.798;10.022;2023-07-20T13:00:11;151060.28;;;27.60;36.22
5780;BME280;2916;49.798;10.022;2023-07-20T13:02:38;150981.31;;;27.28;36.63
5780;BME280;2916;49.798;10.022;2023-07-20T13:05:06;150968.75;;;27.23;37.22
5780;BME280;2916;49.798;10.022;2023-07-20T13:07:35;150985.06;;;27.30;37.99
5780;BME280;2916;49.798;10.022;2023-07-20T13:10:05;151036.44;;;27.51;37.91